Time;durP1;ratioP1;P1;durP2;ratioP2;P2;SDS_P1;SDS_P2;PMS_P1;PMS_P2;Temp;Humidity;BMP_temperature;BMP_pressure;BME280_temperature;BME280_humidity;BME280_pressure;Samples;Min_cycle;Max_cycle;Signal;HPM_P1;HPM_P2
2021/04/20 00:02:11;;;;;;;22.57;19.17;;;7.50;99.90;;;;;;5058789;28;20452;-81
2021/04/20 00:04:46;;;;;;;26.57;20.77;;;7.50;99.90;;;;;;5057472;28;20455;-81
2021/04/20 00:07:20;;;;;;;22.87;18.67;;;7.50;99.90;;;;;;5059510;28;20434;-82
2021/04/20 00:09:55;;;;;;;23.67;20.87;;;7.40;99.90;;;;;;5050293;28;20548;-82
2021/04/20 00:12:30;;;;;;;24.23;20.30;;;7.50;99.90;;;;;;5058238;28;20554;-82
2021/04/20 00:15:07;;;;;;;24.77;19.80;;;7.40;99.90;;;;;;5053552;28;20531;-83
2021/04/20 00:17:43;;;;;;;23.43;20.60;;;7.40;99.90;;;;;;5053471;28;20519;-84
2021/04/20 00:20:18;;;;;;;23.87;20.57;;;7.30;99.90;;;;;;5070926;28;20482;-81
2021/04/20 00:22:53;;;;;;;22.20;19.00;;;7.30;99.90;;;;;;5070383;28;20476;-82
2021/04/20 00:25:28;;;;;;;25.07;19.97;;;7.30;99.90;;;;;;5054953;28;20956;-84
2021/04/20 00:28:03;;;;;;;23.40;20.87;;;7.30;99.90;;;;;;5057755;28;21022;-81
2021/04/20 00:30:35;;;;;;;25.50;21.33;;;7.30;99.90;;;;;;5055620;28;20555;-83
2021/04/20 00:33:11;;;;;;;25.33;21.70;;;7.30;99.90;;;;;;5053919;28;20497;-82
2021/04/20 00:35:43;;;;;;;24.53;20.73;;;7.20;99.90;;;;;;5059147;28;20531;-87
2021/04/20 00:38:18;;;;;;;28.70;21.50;;;7.30;99.90;;;;;;5059070;28;20445;-82
2021/04/20 00:40:54;;;;;;;25.47;20.27;;;7.30;99.90;;;;;;5059553;28;20455;-81
2021/04/20 00:43:38;;;;;;;23.77;19.40;;;7.30;99.90;;;;;;5058857;28;20439;-82
2021/04/20 00:46:15;;;;;;;22.53;19.47;;;7.20;99.90;;;;;;5072627;28;20448;-82
2021/04/20 00:48:50;;;;;;;23.63;19.73;;;7.20;99.90;;;;;;5068071;28;20707;-81
2021/04/20 00:51:25;;;;;;;26.53;21.77;;;7.10;99.90;;;;;;5054502;28;20449;-82
2021/04/20 00:54:00;;;;;;;27.10;20.60;;;7.10;99.90;;;;;;5049220;28;20457;-81
2021/04/20 00:56:35;;;;;;;26.00;21.00;;;7.10;99.90;;;;;;5060187;28;20459;-82
2021/04/20 00:59:09;;;;;;;25.83;21.03;;;7.10;99.90;;;;;;5054155;28;20534;-81
2021/04/20 01:01:45;;;;;;;23.87;20.83;;;7.10;99.90;;;;;;5059243;28;21201;-81
2021/04/20 01:04:22;;;;;;;23.07;20.10;;;7.20;99.90;;;;;;5053628;28;20453;-81
2021/04/20 01:06:57;;;;;;;29.10;22.70;;;7.20;99.90;;;;;;5058117;28;20451;-82
2021/04/20 01:09:33;;;;;;;26.20;22.17;;;7.10;99.90;;;;;;5056260;28;20517;-83
2021/04/20 01:12:09;;;;;;;27.23;22.67;;;7.20;99.90;;;;;;5058751;28;20476;-83
2021/04/20 01:14:41;;;;;;;25.93;22.40;;;7.10;99.90;;;;;;5048754;28;20521;-84
2021/04/20 01:17:16;;;;;;;32.00;24.17;;;7.10;99.90;;;;;;5057885;28;20475;-81
2021/04/20 01:19:52;;;;;;;31.20;24.20;;;7.10;99.90;;;;;;5055296;28;20517;-81
2021/04/20 01:22:28;;;;;;;31.23;23.50;;;7.00;99.90;;;;;;5054341;28;20454;-83
2021/04/20 01:25:04;;;;;;;28.87;23.20;;;7.10;99.90;;;;;;5050495;28;20460;-83
2021/04/20 01:27:39;;;;;;;29.33;24.37;;;7.00;99.90;;;;;;5060219;28;20477;-85
2021/04/20 01:30:16;;;;;;;27.80;22.77;;;7.00;99.90;;;;;;5070051;28;20433;-82
2021/04/20 01:32:50;;;;;;;35.00;25.50;;;7.00;99.90;;;;;;5059242;28;20469;-81
2021/04/20 01:35:26;;;;;;;35.00;26.03;;;6.90;99.90;;;;;;5057206;28;20937;-80
2021/04/20 01:38:03;;;;;;;30.67;25.17;;;6.90;99.90;;;;;;5061986;28;20455;-83
2021/04/20 01:40:39;;;;;;;35.73;26.13;;;6.80;99.90;;;;;;5053294;28;20451;-80
2021/04/20 01:43:15;;;;;;;36.67;27.03;;;6.80;99.90;;;;;;5048487;28;20456;-84
2021/04/20 01:45:51;;;;;;;38.83;28.10;;;6.70;99.90;;;;;;5059776;28;20462;-81
2021/04/20 01:48:26;;;;;;;31.67;25.77;;;6.70;99.90;;;;;;5056375;28;20459;-81
2021/04/20 01:51:00;;;;;;;35.40;27.33;;;6.60;99.90;;;;;;5068412;28;20469;-81
2021/04/20 01:53:36;;;;;;;34.97;27.10;;;6.60;99.90;;;;;;5067770;28;20464;-84
2021/04/20 01:56:13;;;;;;;36.17;25.67;;;6.50;99.90;;;;;;5065501;28;20478;-85
2021/04/20 01:58:50;;;;;;;35.50;26.93;;;6.50;99.90;;;;;;5068970;28;20442;-82
2021/04/20 02:01:28;;;;;;;36.53;28.00;;;6.40;99.90;;;;;;5068396;28;20460;-81
2021/04/20 02:04:03;;;;;;;38.20;28.40;;;6.40;99.90;;;;;;5070961;28;20459;-83
2021/04/20 02:06:38;;;;;;;42.20;29.17;;;6.40;99.90;;;;;;5066858;28;20447;-83
2021/04/20 02:09:13;;;;;;;48.87;34.03;;;6.40;99.90;;;;;;5075484;28;20459;-83
2021/04/20 02:11:49;;;;;;;43.90;32.77;;;6.50;99.90;;;;;;5072130;28;20448;-82
2021/04/20 02:14:25;;;;;;;46.77;30.60;;;6.50;99.90;;;;;;5065822;28;20480;-82
2021/04/20 02:17:00;;;;;;;39.93;28.90;;;6.60;99.90;;;;;;5062055;28;20468;-81
2021/04/20 02:19:37;;;;;;;34.67;26.60;;;6.60;99.90;;;;;;5056608;28;20460;-81
2021/04/20 02:22:12;;;;;;;36.40;28.50;;;6.60;99.90;;;;;;5063542;28;20456;-82
2021/04/20 02:24:48;;;;;;;36.17;26.83;;;6.70;99.90;;;;;;5060071;28;20464;-80
2021/04/20 02:27:23;;;;;;;41.87;30.40;;;6.70;99.90;;;;;;5061415;28;20487;-81
2021/04/20 02:30:00;;;;;;;37.87;28.27;;;6.70;99.90;;;;;;5054801;28;20489;-81
2021/04/20 02:32:35;;;;;;;46.23;33.23;;;6.70;99.90;;;;;;5057666;28;20550;-82
2021/04/20 02:35:11;;;;;;;38.50;28.50;;;6.80;99.90;;;;;;5061016;28;20501;-80
2021/04/20 02:37:48;;;;;;;37.53;27.80;;;6.80;99.90;;;;;;5058948;28;20459;-83
2021/04/20 02:40:25;;;;;;;34.70;27.00;;;6.80;99.90;;;;;;5060852;28;20463;-82
2021/04/20 02:43:01;;;;;;;35.17;26.60;;;6.80;99.90;;;;;;5059808;28;20469;-84
2021/04/20 02:45:40;;;;;;;34.60;26.70;;;6.70;99.90;;;;;;5056871;28;20458;-82
2021/04/20 02:48:15;;;;;;;35.47;25.93;;;6.70;99.90;;;;;;5052576;28;20450;-85
2021/04/20 02:50:51;;;;;;;30.00;24.93;;;6.70;99.90;;;;;;5057434;28;20474;-83
2021/04/20 02:53:27;;;;;;;35.03;26.77;;;6.70;99.90;;;;;;5061542;28;20473;-85
2021/04/20 02:56:02;;;;;;;37.60;27.57;;;6.70;99.90;;;;;;5064633;28;20479;-82
2021/04/20 02:58:39;;;;;;;37.20;27.50;;;6.70;99.90;;;;;;5056678;28;20476;-85
2021/04/20 03:01:18;;;;;;;35.37;27.57;;;6.60;99.90;;;;;;5059994;28;20440;-83
2021/04/20 03:03:54;;;;;;;36.27;26.70;;;6.50;99.90;;;;;;5057408;28;20454;-84
2021/04/20 03:06:29;;;;;;;36.57;27.00;;;6.50;99.90;;;;;;5071431;28;20448;-86
2021/04/20 03:09:05;;;;;;;47.30;32.33;;;6.40;99.90;;;;;;5071151;28;20455;-86
2021/04/20 03:11:42;;;;;;;48.53;33.23;;;6.40;99.90;;;;;;5056537;28;20462;-84
2021/04/20 03:14:18;;;;;;;41.07;30.43;;;6.30;99.90;;;;;;5058432;28;20456;-87
2021/04/20 03:16:53;;;;;;;38.33;28.70;;;6.20;99.90;;;;;;5060969;28;20563;-83
2021/04/20 03:19:28;;;;;;;40.67;30.13;;;6.10;99.90;;;;;;5064299;28;20482;-81
2021/04/20 03:22:05;;;;;;;40.50;29.00;;;6.00;99.90;;;;;;5065353;28;20449;-82
2021/04/20 03:25:15;;;;;;;38.63;28.90;;;5.90;99.90;;;;;;5063611;28;20496;-82
2021/04/20 03:27:50;;;;;;;42.67;30.37;;;5.90;99.90;;;;;;5039462;28;20440;-82
2021/04/20 03:30:29;;;;;;;44.20;29.60;;;6.00;99.90;;;;;;5067075;28;20467;-85
2021/04/20 03:33:16;;;;;;;46.63;31.87;;;5.80;99.90;;;;;;5074958;28;20477;-83
2021/04/20 03:36:05;;;;;;;50.17;32.10;;;5.70;99.90;;;;;;5067362;28;20563;-84
2021/04/20 03:38:46;;;;;;;46.60;30.40;;;5.70;99.90;;;;;;5073315;28;20465;-82
2021/04/20 03:41:24;;;;;;;53.27;33.70;;;5.60;99.90;;;;;;5068468;28;20465;-83
2021/04/20 03:44:06;;;;;;;53.80;33.87;;;5.70;99.90;;;;;;5058539;28;20447;-84
2021/04/20 03:46:45;;;;;;;55.20;33.80;;;5.70;99.90;;;;;;5069158;28;20456;-82
2021/04/20 03:49:24;;;;;;;52.57;34.10;;;5.70;99.90;;;;;;5068065;28;20483;-83
2021/04/20 03:52:01;;;;;;;53.50;34.27;;;5.70;99.90;;;;;;5061939;28;20451;-82
2021/04/20 03:54:38;;;;;;;53.47;35.53;;;5.70;99.90;;;;;;5066010;28;20478;-82
2021/04/20 03:57:17;;;;;;;53.37;33.60;;;5.70;99.90;;;;;;5058711;28;20959;-84
2021/04/20 03:59:53;;;;;;;56.63;35.40;;;5.70;99.90;;;;;;5058833;28;20455;-82
2021/04/20 04:02:30;;;;;;;60.57;35.80;;;5.70;99.90;;;;;;5065321;28;20462;-84
2021/04/20 04:05:09;;;;;;;63.10;36.37;;;5.70;99.90;;;;;;5059623;28;20449;-86
2021/04/20 04:07:45;;;;;;;57.07;35.97;;;5.60;99.90;;;;;;5063539;28;20456;-82
2021/04/20 04:10:21;;;;;;;52.80;34.73;;;5.50;99.90;;;;;;5060211;28;20474;-83
2021/04/20 04:12:59;;;;;;;54.13;34.10;;;5.50;99.90;;;;;;5064934;28;20475;-82
2021/04/20 04:15:35;;;;;;;54.37;34.63;;;5.40;99.90;;;;;;5065079;28;20528;-82
2021/04/20 04:18:16;;;;;;;53.97;34.37;;;5.40;99.90;;;;;;5062420;28;20535;-82
2021/04/20 04:20:53;;;;;;;53.47;34.77;;;5.30;99.90;;;;;;5052963;28;20455;-84
2021/04/20 04:23:31;;;;;;;56.50;37.90;;;5.20;99.90;;;;;;5055277;28;20524;-83
2021/04/20 04:26:11;;;;;;;68.63;40.20;;;5.20;99.90;;;;;;5058497;28;20490;-83
2021/04/20 04:28:50;;;;;;;72.37;42.27;;;5.20;99.90;;;;;;5058891;28;20443;-84
2021/04/20 04:31:24;;;;;;;75.77;44.30;;;5.40;99.90;;;;;;5071325;28;20477;-83
2021/04/20 04:34:02;;;;;;;69.47;40.97;;;5.40;99.90;;;;;;5067822;28;20479;-80
2021/04/20 04:36:37;;;;;;;59.30;37.07;;;5.30;99.90;;;;;;5063005;28;20440;-83
2021/04/20 04:39:13;;;;;;;61.73;38.13;;;5.30;99.90;;;;;;5065778;28;20482;-82
2021/04/20 04:41:49;;;;;;;64.73;37.83;;;5.30;99.90;;;;;;5066019;28;20963;-83
2021/04/20 04:44:24;;;;;;;66.60;39.87;;;5.40;99.90;;;;;;5067945;28;20446;-85
2021/04/20 04:46:59;;;;;;;65.20;37.03;;;5.50;99.90;;;;;;5060958;28;20449;-82
2021/04/20 04:49:36;;;;;;;57.57;37.10;;;5.40;99.90;;;;;;5058089;28;20446;-82
2021/04/20 04:52:12;;;;;;;70.73;36.67;;;5.40;99.90;;;;;;5059274;28;20479;-86
2021/04/20 04:54:48;;;;;;;72.30;39.43;;;5.60;99.90;;;;;;5069797;28;20450;-84
2021/04/20 04:57:24;;;;;;;66.80;38.00;;;5.60;99.90;;;;;;5068905;28;20487;-82
2021/04/20 05:00:01;;;;;;;55.07;36.30;;;5.70;99.90;;;;;;5070671;28;20441;-82
2021/04/20 05:02:37;;;;;;;60.83;36.80;;;5.60;99.90;;;;;;5056098;28;20492;-85
2021/04/20 05:05:18;;;;;;;58.70;37.27;;;5.60;99.90;;;;;;5069175;28;20443;-82
2021/04/20 05:07:50;;;;;;;60.47;38.60;;;5.70;99.90;;;;;;5062423;28;20453;-82
2021/04/20 05:10:25;;;;;;;73.77;40.53;;;5.80;99.90;;;;;;5062557;28;20478;-83
2021/04/20 05:13:00;;;;;;;59.40;36.30;;;5.70;99.90;;;;;;5064558;28;20475;-84
2021/04/20 05:15:36;;;;;;;59.60;37.83;;;5.90;99.90;;;;;;5065160;28;20963;-82
2021/04/20 05:18:15;;;;;;;168.13;42.67;;;6.00;99.90;;;;;;5062648;28;20493;-82
2021/04/20 05:20:52;;;;;;;83.70;37.30;;;6.00;99.90;;;;;;5062220;28;20482;-82
2021/04/20 05:23:27;;;;;;;68.37;35.03;;;6.00;99.90;;;;;;5068165;28;20468;-84
2021/04/20 05:26:02;;;;;;;47.70;33.37;;;6.20;99.90;;;;;;5066433;28;20453;-83
2021/04/20 05:28:36;;;;;;;47.90;32.30;;;6.40;99.90;;;;;;5054425;28;20456;-83
2021/04/20 05:31:14;;;;;;;50.27;33.87;;;6.50;99.90;;;;;;5059773;28;20454;-82
2021/04/20 05:33:48;;;;;;;56.70;35.33;;;6.50;99.90;;;;;;5064335;28;20463;-85
2021/04/20 05:36:24;;;;;;;44.13;31.40;;;6.40;99.90;;;;;;5069933;28;20473;-85
2021/04/20 05:41:49;;;;;;;43.70;31.03;;;6.70;99.90;;;;;;5064539;28;20456;-82
2021/04/20 05:44:23;;;;;;;42.70;29.77;;;6.90;99.90;;;;;;5056528;28;20470;-82
2021/04/20 05:46:58;;;;;;;43.13;29.17;;;7.00;99.90;;;;;;5053687;28;20453;-83
2021/04/20 05:49:33;;;;;;;46.20;29.57;;;7.10;99.90;;;;;;5070226;28;20457;-82
2021/04/20 05:52:09;;;;;;;53.47;31.53;;;7.10;99.90;;;;;;5070428;28;20471;-84
2021/04/20 05:54:44;;;;;;;46.07;31.00;;;7.10;99.90;;;;;;5065616;28;20446;-83
2021/04/20 05:57:23;;;;;;;39.27;28.70;;;7.40;99.90;;;;;;5049781;28;20462;-84
2021/04/20 06:00:00;;;;;;;45.27;28.10;;;7.60;99.90;;;;;;5060211;28;20448;-83
2021/04/20 06:02:37;;;;;;;39.20;30.07;;;7.70;99.90;;;;;;5038248;28;20484;-83
2021/04/20 06:05:15;;;;;;;46.97;31.10;;;8.20;99.90;;;;;;5057049;28;20468;-82
2021/04/20 06:08:08;;;;;;;37.40;26.90;;;8.50;96.70;;;;;;5053958;28;20444;-82
2021/04/20 06:10:45;;;;;;;32.27;25.73;;;8.70;93.50;;;;;;5053793;28;22450;-82
2021/04/20 06:13:21;;;;;;;36.80;25.00;;;8.60;94.30;;;;;;5057259;28;20461;-82
2021/04/20 06:16:01;;;;;;;32.97;24.33;;;8.50;93.50;;;;;;5054436;28;20963;-90
2021/04/20 06:18:39;;;;;;;36.15;32.20;;;8.20;96.30;;;;;;5052920;28;20464;-84
2021/04/20 06:21:26;;;;;;;49.90;29.40;;;8.40;98.50;;;;;;5059793;28;20373;-83
2021/04/20 06:24:11;;;;;;;51.47;30.03;;;8.50;94.00;;;;;;5051055;28;20505;-83
2021/04/20 06:26:46;;;;;;;59.20;32.93;;;8.30;96.00;;;;;;5046574;28;20507;-86
2021/04/20 06:29:21;;;;;;;59.70;30.03;;;8.50;95.60;;;;;;5061645;28;20457;-84
2021/04/20 06:31:55;;;;;;;43.07;30.00;;;8.00;99.10;;;;;;5061705;28;20515;-86
2021/04/20 06:34:38;;;;;;;38.37;28.27;;;7.90;99.60;;;;;;5064838;28;20480;-87
2021/04/20 06:37:14;;;;;;;44.50;29.30;;;8.60;97.40;;;;;;5067438;28;20445;-83
2021/04/20 06:39:50;;;;;;;41.93;30.97;;;9.10;93.30;;;;;;5051971;28;20472;-84
2021/04/20 06:42:28;;;;;;;37.43;28.70;;;8.90;93.10;;;;;;5060385;28;20549;-84
2021/04/20 06:45:06;;;;;;;31.40;26.17;;;9.20;91.40;;;;;;5044344;28;20450;-83
2021/04/20 06:47:47;;;;;;;37.40;28.43;;;9.10;92.20;;;;;;5057175;28;20508;-83
2021/04/20 06:50:23;;;;;;;34.87;29.00;;;9.20;92.00;;;;;;5067621;28;20480;-82
2021/04/20 06:53:03;;;;;;;31.87;26.60;;;9.40;92.20;;;;;;5069844;28;20461;-87
2021/04/20 06:55:50;;;;;;;35.67;28.40;;;9.10;87.20;;;;;;5069395;28;20452;-86
2021/04/20 06:58:30;;;;;;;33.90;27.27;;;9.20;91.60;;;;;;5072282;28;20472;-84
2021/04/20 07:01:12;;;;;;;30.87;26.53;;;9.20;90.70;;;;;;5072889;28;20449;-83
2021/04/20 07:04:09;;;;;;;35.20;28.10;;;9.70;90.20;;;;;;5066913;28;20446;-83
2021/04/20 07:06:52;;;;;;;34.13;25.17;;;9.30;85.80;;;;;;5066621;28;20457;-87
2021/04/20 07:09:32;;;;;;;30.77;26.23;;;9.80;87.10;;;;;;5061109;28;20450;-83
2021/04/20 07:12:08;;;;;;;33.50;25.47;;;9.90;85.60;;;;;;5066145;28;20465;-83
2021/04/20 07:14:50;;;;;;;31.27;25.17;;;10.10;84.60;;;;;;5061996;28;20453;-82
2021/04/20 07:17:38;;;;;;;35.33;27.77;;;9.10;84.10;;;;;;5059103;28;20448;-82
2021/04/20 07:20:30;;;;;;;30.83;26.33;;;8.90;85.90;;;;;;5062354;28;20446;-83
2021/04/20 07:23:26;;;;;;;30.43;26.77;;;9.40;88.40;;;;;;5039457;28;20499;-82
2021/04/20 07:26:32;;;;;;;34.07;26.93;;;9.50;86.50;;;;;;5057470;28;20469;-84
2021/04/20 07:29:24;;;;;;;39.05;30.48;;;9.40;88.60;;;;;;5074971;28;20466;-88
2021/04/20 07:32:15;;;;;;;33.40;29.30;;;9.90;85.40;;;;;;5072552;28;20222;-86
2021/04/20 07:35:18;;;;;;;31.53;26.67;;;9.80;82.70;;;;;;5070867;28;20454;-90
2021/04/20 07:41:21;;;;;;;33.75;30.15;;;9.20;85.50;;;;;;5063452;28;20457;-83
2021/04/20 07:44:05;;;;;;;37.20;32.63;;;9.80;84.10;;;;;;5037235;28;20455;-79
2021/04/20 07:46:45;;;;;;;34.33;29.17;;;10.00;82.80;;;;;;5045544;28;20195;-78
2021/04/20 07:49:26;;;;;;;34.20;28.53;;;9.80;80.70;;;;;;5050106;28;20445;-78
2021/04/20 07:52:06;;;;;;;33.77;28.63;;;9.40;82.60;;;;;;5046241;28;20447;-78
2021/04/20 08:01:33;;;;;;;35.93;30.60;;;10.60;79.50;;;;;;5063923;28;20245;-89
2021/04/20 08:04:32;;;;;;;37.00;30.40;;;10.40;76.60;;;;;;5064000;28;20450;-84
2021/04/20 08:11:28;;;;;;;40.80;31.97;;;10.70;75.80;;;;;;5030199;28;20454;-83
2021/04/20 08:14:13;;;;;;;38.60;30.10;;;11.60;75.40;;;;;;5054915;28;20533;-82
2021/04/20 08:16:55;;;;;;;37.77;30.47;;;11.90;74.50;;;;;;5067477;28;20453;-83
2021/04/20 08:19:48;;;;;;;37.70;31.13;;;11.70;73.60;;;;;;5066063;28;20453;-88
2021/04/20 08:28:51;;;;;;;51.93;35.87;;;11.90;72.80;;;;;;5056150;28;20499;-85
2021/04/20 08:31:35;;;;;;;41.43;34.70;;;12.10;72.40;;;;;;5068240;28;20490;-83
2021/04/20 08:34:20;;;;;;;41.00;34.10;;;11.90;71.30;;;;;;5071007;28;20462;-82
2021/04/20 08:37:12;;;;;;;43.07;34.80;;;11.60;72.10;;;;;;5056517;28;20454;-83
2021/04/20 08:40:06;;;;;;;42.47;37.88;;;11.30;71.80;;;;;;5034238;28;20460;-90
2021/04/20 08:42:52;;;;;;;42.85;37.95;;;11.50;72.10;;;;;;5052627;28;20448;-84
2021/04/20 08:45:38;;;;;;;40.70;34.77;;;11.70;71.90;;;;;;5045545;28;20219;-87
2021/04/20 08:54:37;;;;;;;37.10;32.73;;;11.60;71.60;;;;;;5054994;28;20480;-82
2021/04/20 08:57:21;;;;;;;36.60;30.70;;;11.50;72.00;;;;;;5058843;28;20962;-86
2021/04/20 09:00:16;;;;;;;36.00;30.53;;;11.60;71.80;;;;;;5054445;28;20453;-81
2021/04/20 09:03:17;;;;;;;37.13;30.57;;;11.50;71.70;;;;;;5062841;28;20473;-88
2021/04/20 09:06:43;;;;;;;34.53;29.57;;;12.30;70.90;;;;;;5059118;28;20561;-88
2021/04/20 09:09:51;;;;;;;34.33;30.07;;;12.10;70.20;;;;;;5036467;28;20442;-87
2021/04/20 09:12:29;;;;;;;32.90;29.20;;;12.80;69.60;;;;;;5043008;28;20478;-86
2021/04/20 09:15:07;;;;;;;37.33;33.22;;;12.80;69.40;;;;;;5047779;28;20447;-84
2021/04/20 09:17:53;;;;;;;34.60;30.97;;;12.50;69.00;;;;;;5045822;28;20208;-89
2021/04/20 09:20:44;;;;;;;31.57;28.17;;;12.30;69.60;;;;;;5041733;28;20447;-88
2021/04/20 09:23:29;;;;;;;31.70;28.30;;;12.50;68.90;;;;;;5036877;28;21045;-85
2021/04/20 09:26:21;;;;;;;34.60;31.00;;;12.60;68.90;;;;;;5023648;28;20453;-85
2021/04/20 09:29:09;;;;;;;36.45;32.85;;;12.70;68.70;;;;;;5041133;28;20963;-85
2021/04/20 09:31:42;;;;;;;34.47;31.08;;;13.00;68.30;;;;;;5032819;28;20882;-85
2021/04/20 09:34:25;;;;;;;34.73;30.63;;;12.80;67.80;;;;;;5032401;28;20207;-87
2021/04/20 09:37:06;;;;;;;35.17;31.37;;;13.30;67.80;;;;;;5030434;28;20456;-87
2021/04/20 09:39:44;;;;;;;32.97;29.30;;;12.90;68.10;;;;;;5014879;28;20455;-85
2021/04/20 09:45:18;;;;;;;33.67;30.00;;;13.20;68.00;;;;;;5023296;28;20690;-88
2021/04/20 09:48:12;;;;;;;31.93;27.10;;;12.70;67.40;;;;;;5029613;28;20455;-86
2021/04/20 09:51:01;;;;;;;28.60;24.80;;;12.90;67.10;;;;;;5030118;28;20988;-85
2021/04/20 09:53:55;;;;;;;29.63;24.80;;;13.70;65.30;;;;;;5032458;28;20470;-84
2021/04/20 09:56:46;;;;;;;25.73;22.60;;;13.30;63.70;;;;;;5030812;28;20451;-84
2021/04/20 09:59:25;;;;;;;26.30;23.60;;;13.20;63.90;;;;;;5025328;28;20488;-81
2021/04/20 10:02:25;;;;;;;33.33;29.83;;;13.50;64.00;;;;;;5021771;28;20457;-75
2021/04/20 10:05:09;;;;;;;33.27;29.20;;;13.80;64.70;;;;;;5023683;28;20250;-77
2021/04/20 10:08:09;;;;;;;33.17;28.53;;;13.90;64.60;;;;;;5018152;28;20458;-76
2021/04/20 10:11:03;;;;;;;29.47;26.17;;;14.20;63.50;;;;;;5016029;28;20456;-80
2021/04/20 10:13:55;;;;;;;23.93;21.50;;;13.90;62.60;;;;;;5020535;28;20836;-76
2021/04/20 10:16:36;;;;;;;24.00;20.13;;;13.90;60.50;;;;;;5011070;28;20822;-76
2021/04/20 10:19:27;;;;;;;20.73;18.63;;;14.10;60.20;;;;;;5024515;28;20951;-76
2021/04/20 10:22:22;;;;;;;24.97;22.37;;;13.70;58.50;;;;;;5019262;28;20475;-77
2021/04/20 10:25:15;;;;;;;23.33;20.83;;;13.70;58.60;;;;;;5019317;28;20483;-76
2021/04/20 10:27:57;;;;;;;24.73;21.40;;;14.60;58.80;;;;;;5016259;28;20532;-78
2021/04/20 10:30:36;;;;;;;23.53;21.03;;;14.70;57.90;;;;;;5017119;28;20981;-76
2021/04/20 10:33:16;;;;;;;24.40;21.90;;;14.70;56.90;;;;;;5037003;28;20859;-77
2021/04/20 10:35:57;;;;;;;23.40;21.00;;;14.80;56.90;;;;;;5013080;28;20513;-75
2021/04/20 10:38:37;;;;;;;23.13;20.70;;;15.50;56.10;;;;;;5022660;28;20443;-79
2021/04/20 10:41:30;;;;;;;24.10;20.93;;;14.90;56.00;;;;;;5022138;28;20447;-84
2021/04/20 10:44:12;;;;;;;23.13;20.70;;;14.70;55.40;;;;;;5020564;28;20497;-77
2021/04/20 10:46:52;;;;;;;24.50;22.00;;;15.10;55.80;;;;;;5013192;28;20455;-81
2021/04/20 10:49:31;;;;;;;24.40;21.10;;;14.80;56.00;;;;;;5018137;28;20454;-76
2021/04/20 10:52:15;;;;;;;24.87;22.33;;;14.30;56.00;;;;;;5014678;28;20448;-76
2021/04/20 10:54:51;;;;;;;22.27;20.03;;;14.00;55.60;;;;;;5017247;28;21087;-78
2021/04/20 10:57:34;;;;;;;22.07;19.90;;;14.10;55.40;;;;;;5018128;28;20498;-91
2021/04/20 11:06:21;;;;;;;22.97;20.67;;;15.70;52.60;;;;;;5025662;28;20455;-89
2021/04/20 11:09:07;;;;;;;22.00;19.70;;;15.50;53.10;;;;;;5033847;28;20435;-87
2021/04/20 11:11:47;;;;;;;24.07;21.40;;;15.50;53.80;;;;;;5038675;28;20440;-88
2021/04/20 11:14:43;;;;;;;24.60;22.00;;;16.00;54.00;;;;;;5029998;28;20518;-88
2021/04/20 11:20:46;;;;;;;23.40;21.00;;;15.90;53.80;;;;;;5022666;28;20444;-87
2021/04/20 11:23:25;;;;;;;23.40;20.93;;;15.50;53.50;;;;;;5019202;28;20487;-87
2021/04/20 11:26:09;;;;;;;22.00;19.83;;;15.90;52.90;;;;;;5026786;28;20485;-87
2021/04/20 11:35:10;;;;;;;24.40;22.00;;;16.50;52.10;;;;;;5029226;28;20454;-87
2021/04/20 11:37:48;;;;;;;26.50;22.00;;;16.20;51.90;;;;;;5028288;28;20263;-87
2021/04/20 11:43:34;;;;;;;24.93;22.43;;;15.70;52.30;;;;;;5027758;28;20470;-87
2021/04/20 11:46:14;;;;;;;24.53;21.93;;;16.00;52.60;;;;;;5035175;28;20483;-88
2021/04/20 11:48:48;;;;;;;27.03;23.60;;;15.60;53.00;;;;;;5032491;28;20458;-89
2021/04/20 11:51:28;;;;;;;25.77;23.17;;;15.70;53.30;;;;;;5035498;28;20450;-89
2021/04/20 11:54:04;;;;;;;28.00;25.27;;;15.70;52.90;;;;;;5026527;28;20942;-81
2021/04/20 11:56:45;;;;;;;24.03;21.80;;;15.60;52.50;;;;;;5034227;28;20485;-89
2021/04/20 11:59:25;;;;;;;25.33;22.67;;;15.00;52.30;;;;;;5035379;28;20447;-85
2021/04/20 12:02:01;;;;;;;26.00;23.40;;;14.70;52.90;;;;;;5032580;28;20473;-81
2021/04/20 12:07:57;;;;;;;23.20;20.83;;;14.80;52.50;;;;;;4984626;28;20205;-81
2021/04/20 12:14:21;;;;;;;21.27;19.17;;;14.40;52.10;;;;;;5006571;28;20544;-83
2021/04/20 12:29:45;;;;;;;19.00;17.20;;;17.20;48.70;;;;;;5234952;22;20447;-83
2021/04/20 12:32:34;;;;;;;20.27;18.17;;;17.70;48.70;;;;;;5073066;28;20194;-83
2021/04/20 12:38:59;;;;;;;22.80;20.60;;;17.30;49.40;;;;;;5067720;28;20417;-83
2021/04/20 12:42:08;;;;;;;22.50;19.60;;;16.40;49.60;;;;;;5058960;28;20445;-78
2021/04/20 12:44:45;;;;;;;21.00;18.83;;;16.80;50.50;;;;;;5059738;28;20553;-79
2021/04/20 12:47:22;;;;;;;21.60;19.43;;;17.20;49.50;;;;;;5064356;28;20459;-77
2021/04/20 12:54:00;;;;;;;19.97;18.10;;;16.50;49.30;;;;;;5070050;28;20576;-83
2021/04/20 12:56:38;;;;;;;20.47;18.27;;;16.10;48.60;;;;;;5068560;28;20930;-85
2021/04/20 12:59:33;;;;;;;18.03;16.13;;;17.50;48.90;;;;;;5066848;28;20454;-84
2021/04/20 13:02:10;;;;;;;15.80;14.30;;;17.80;47.60;;;;;;5081283;28;20446;-83
2021/04/20 13:08:51;;;;;;;19.47;15.97;;;17.90;46.90;;;;;;5063439;28;20411;-83
2021/04/20 13:18:07;;;;;;;19.03;17.03;;;17.80;46.50;;;;;;5071947;28;20462;-82
2021/04/20 13:20:44;;;;;;;14.87;13.43;;;18.10;46.40;;;;;;5095905;28;20456;-83
2021/04/20 13:41:15;;;;;;;15.07;13.57;;;18.80;43.30;;;;;;5063728;28;20933;-88
2021/04/20 13:46:54;;;;;;;15.27;13.87;;;19.40;42.50;;;;;;5055404;28;20445;-87
2021/04/20 13:49:34;;;;;;;16.50;14.83;;;18.90;43.80;;;;;;5052741;28;20484;-87
2021/04/20 13:52:20;;;;;;;16.53;15.03;;;17.90;44.30;;;;;;5037762;28;20815;-87
2021/04/20 13:55:27;;;;;;;16.53;14.80;;;17.30;44.50;;;;;;5039209;28;20486;-88
2021/04/20 14:05:48;;;;;;;13.10;11.80;;;16.90;43.80;;;;;;5058064;28;20456;-84
2021/04/20 14:15:51;;;;;;;13.20;11.90;;;17.10;43.60;;;;;;5030166;28;20459;-88
2021/04/20 14:18:29;;;;;;;11.70;10.50;;;17.20;42.90;;;;;;5024926;28;20931;-87
2021/04/20 14:21:25;;;;;;;15.27;13.23;;;17.00;43.10;;;;;;5047561;28;20472;-84
2021/04/20 14:26:54;;;;;;;13.50;11.30;;;17.60;42.40;;;;;;5126870;22;20580;-88
2021/04/20 14:29:33;;;;;;;11.93;10.73;;;17.00;42.50;;;;;;5070791;28;21029;-89
2021/04/20 14:34:57;;;;;;;14.43;12.90;;;16.40;44.30;;;;;;5094744;28;20495;-86
2021/04/20 14:37:42;;;;;;;14.90;13.50;;;16.40;45.40;;;;;;5084144;28;20446;-85
2021/04/20 14:40:27;;;;;;;14.13;12.77;;;15.70;48.30;;;;;;5076163;28;20433;-84
2021/04/20 14:43:15;;;;;;;15.82;14.13;;;15.50;47.50;;;;;;5085741;28;20477;-84
2021/04/20 14:45:54;;;;;;;15.83;13.10;;;15.60;48.10;;;;;;5087062;28;20202;-83
2021/04/20 14:48:33;;;;;;;15.80;12.97;;;15.70;47.60;;;;;;5100874;28;20445;-83
2021/04/20 14:51:10;;;;;;;13.20;12.00;;;16.20;47.40;;;;;;5079046;28;20445;-85
2021/04/20 14:53:49;;;;;;;12.33;11.13;;;16.20;46.60;;;;;;5080469;28;20473;-84
2021/04/20 14:56:27;;;;;;;12.93;11.53;;;16.30;47.10;;;;;;5077154;28;20461;-81
2021/04/20 14:59:05;;;;;;;14.30;12.50;;;16.20;46.00;;;;;;5079123;28;20967;-85
2021/04/20 15:01:41;;;;;;;13.70;12.40;;;15.80;46.00;;;;;;5075909;28;20461;-87
2021/04/20 15:04:18;;;;;;;15.67;14.17;;;16.00;46.80;;;;;;5065156;28;20744;-82
2021/04/20 15:07:10;;;;;;;15.27;13.70;;;16.10;46.30;;;;;;5074386;28;20448;-88
2021/04/20 15:09:51;;;;;;;15.52;13.93;;;16.00;46.20;;;;;;5084343;28;20955;-77
2021/04/20 15:12:30;;;;;;;17.40;14.17;;;16.10;46.60;;;;;;5075951;28;20195;-80
2021/04/20 15:15:11;;;;;;;16.00;14.40;;;15.80;46.50;;;;;;5074484;28;20982;-77
2021/04/20 15:17:49;;;;;;;15.97;14.47;;;15.70;46.50;;;;;;5071047;28;20477;-78
2021/04/20 15:20:31;;;;;;;16.50;14.90;;;15.80;46.30;;;;;;5065228;28;20455;-78
2021/04/20 15:23:10;;;;;;;16.80;15.10;;;15.60;46.70;;;;;;5071185;28;20483;-77
2021/04/20 15:25:52;;;;;;;14.33;12.93;;;15.70;46.90;;;;;;5078009;28;20480;-77
2021/04/20 15:28:28;;;;;;;13.30;11.97;;;15.60;46.50;;;;;;5069438;28;20467;-80
2021/04/20 15:31:03;;;;;;;13.50;12.10;;;15.70;45.90;;;;;;5075132;28;20956;-85
2021/04/20 15:33:43;;;;;;;12.70;11.33;;;15.90;45.40;;;;;;5080512;28;20473;-77
2021/04/20 15:36:29;;;;;;;13.23;11.83;;;16.20;45.20;;;;;;5068950;28;20441;-79
2021/04/20 15:39:10;;;;;;;17.40;13.63;;;16.10;45.50;;;;;;5060127;28;20466;-83
2021/04/20 15:41:49;;;;;;;15.30;13.93;;;16.30;46.40;;;;;;5065525;28;20441;-78
2021/04/20 15:44:28;;;;;;;14.90;13.63;;;16.60;46.20;;;;;;5068117;28;20612;-86
2021/04/20 15:47:03;;;;;;;16.40;13.43;;;16.80;46.20;;;;;;5071347;28;20952;-81
2021/04/20 15:49:43;;;;;;;14.80;13.40;;;16.70;46.10;;;;;;5062994;28;20457;-79
2021/04/20 15:52:23;;;;;;;15.00;13.60;;;16.70;45.80;;;;;;5071556;28;20453;-77